Terminal Aerodrome Forecast
Issued by NWS

Home | Current Version | Previous Version | Text Only | Print | Product List | Glossary On
Versions: 1 2 3 4 5 6 7 8 9 10 11 12 13 14 15
000
FTUS44 KLZK 300700 AAA
TAFPBF
TAF AMD
KPBF 300729Z 3007/0106 23004KT P6SM VCTS OVC050CB
     FM301000 26003KT P6SM SCT250
     FM301400 27009KT P6SM VCSH SCT050
     FM010100 22005KT P6SM VCSH BKN060=

USA.gov is the U.S. government's official web portal to all federal, state and local government web resources and services.